Weather at Francisco de Sá Carneiro Airport

Public forecast

Using degrees Celsius for public forecast. Weather courtesy of forecast.io.

Current aviation weather report (METAR) for Francisco de Sá Carneiro Airport

2024/05/28 01:00 (retrieved 17 minutes ago)

LPPR 280100Z 00000KT CAVOK 12/11 Q1020

Closest aviation forecast (TAF) to Francisco de Sá Carneiro Airport

Closest forecast is Ovar Air Base, 20.0 nm (37.1 km) S.

2024/05/27 20:06 Ammendment (retrieved 5 hours ago)

TAF AMD TAF AMD LPOV 272003Z 2720/2818 CNL